»·PEaware :: AAL398 KGPI-KGEG

AAL398 :: KGPI-KGEG

FLIGHT INFORMATION

Flight Status: Arrived
Operator:
American Airlines
More flights by this operator :: More flights under this callsign
Pilot: Sergei F. (8485)
Aircraft: AIRBUS A320
(A320)
More flights by this aircraft type
Origin: KGPI Glacier Park Intl
United States
Destination: KGEG Spokane Intl
United States
More flights between these airports :: More routes between these airports
Route: KILLY1 KILLY V448 GEG
File this flight plan on PilotEdge
Remarks:
Altitude:
(Current/Filed)
18,000ft
Speed:
(Current/Filed)
300kts
Departed: 03-Aug-18 06:03 PM
Arrived: 03-Aug-18 06:34 PM
Distance/Time
Traveled:
138nm/0:31
Distance/Time
To Go:
Arrived

Flight Plot

Page will automatically refresh every two minutes.

Flight plan parsing failed; only flown route is shown


Map Options




Map Legend


Flown Route
Filed Route
Departure Airport
Arrival Airport
Navaid (VOR, NDB)
Fix

Horizontal Profiles

Position Reports

Time Latitude Longitude Heading Altitude Ground
Speed
03-Aug-18 17:31 48.307814 -114.253292 125 2971ft 0kts
03-Aug-18 17:32 48.307814 -114.253292 125 2971ft 0kts
03-Aug-18 17:33 48.307814 -114.253292 125 2971ft 0kts
03-Aug-18 17:34 48.307814 -114.253292 125 2971ft 0kts
03-Aug-18 17:35 48.307814 -114.253292 125 2971ft 0kts
03-Aug-18 17:36 48.307814 -114.253292 125 2971ft 0kts
03-Aug-18 17:37 48.307814 -114.253292 125 2971ft 0kts
03-Aug-18 17:38 48.307814 -114.253292 125 2971ft 0kts
03-Aug-18 17:39 48.307814 -114.253292 125 2971ft 0kts
03-Aug-18 17:40 48.307814 -114.253292 125 2971ft 0kts
03-Aug-18 17:41 48.307814 -114.253292 125 2971ft 0kts
03-Aug-18 17:42 48.307814 -114.253292 125 2971ft 0kts
03-Aug-18 17:43 48.307814 -114.253292 125 2971ft 0kts
03-Aug-18 17:44 48.307814 -114.253292 125 2971ft 0kts
03-Aug-18 17:45 48.307814 -114.253293 125 2971ft 0kts
03-Aug-18 17:46 48.308123 -114.253946 126 2971ft 2kts
03-Aug-18 17:47 48.308023 -114.254456 33 2971ft 0kts
03-Aug-18 17:48 48.308023 -114.254456 33 2971ft 0kts
03-Aug-18 17:49 48.308023 -114.254456 33 2971ft 0kts
03-Aug-18 17:50 48.308023 -114.254456 33 2971ft 0kts
03-Aug-18 17:51 48.308023 -114.254456 33 2971ft 0kts
03-Aug-18 17:52 48.308023 -114.254456 33 2971ft 0kts
03-Aug-18 17:53 48.308023 -114.254456 33 2971ft 0kts
03-Aug-18 17:54 48.308023 -114.254456 33 2971ft 0kts
03-Aug-18 17:55 48.308061 -114.254418 34 2971ft 1kts
03-Aug-18 17:56 48.309096 -114.253326 31 2972ft 5kts
03-Aug-18 17:57 48.310792 -114.253068 25 2973ft 7kts
03-Aug-18 17:58 48.313430 -114.250339 34 2975ft 11kts
03-Aug-18 17:59 48.316052 -114.247605 34 2978ft 14kts
03-Aug-18 18:00 48.318232 -114.245468 358 2978ft 3kts
03-Aug-18 18:01 48.318274 -114.245477 350 2978ft 0kts
03-Aug-18 18:02 48.318360 -114.245519 337 2978ft 3kts
03-Aug-18 18:03 48.318665 -114.246929 210 2978ft 3kts
03-Aug-18 18:04 48.295366 -114.271261 218 3635ft 183kts
03-Aug-18 18:05 48.266656 -114.333907 252 6065ft 221kts
03-Aug-18 18:06 48.236953 -114.428060 227 8133ft 276kts
03-Aug-18 18:07 48.180232 -114.509802 226 10779ft 300kts
03-Aug-18 18:08 48.136212 -114.625896 256 11848ft 358kts
03-Aug-18 18:09 48.109635 -114.777659 255 12877ft 396kts
03-Aug-18 18:10 48.081061 -114.938170 255 14599ft 405kts
03-Aug-18 18:11 48.051600 -115.102500 255 16112ft 415kts
03-Aug-18 18:12 48.021064 -115.271313 255 17494ft 424kts
03-Aug-18 18:13 47.990295 -115.439727 255 18086ft 423kts
03-Aug-18 18:14 47.959198 -115.608466 255 18087ft 424kts
03-Aug-18 18:15 47.928451 -115.773812 254 18086ft 424kts
03-Aug-18 18:16 47.897357 -115.939550 254 18087ft 424kts
03-Aug-18 18:17 47.866036 -116.105034 254 18086ft 424kts
03-Aug-18 18:18 47.833890 -116.273382 254 17954ft 421kts
03-Aug-18 18:19 47.803497 -116.430760 254 14846ft 375kts
03-Aug-18 18:20 47.773254 -116.587060 254 14039ft 403kts
03-Aug-18 18:21 47.743430 -116.739087 254 14043ft 371kts
03-Aug-18 18:22 47.717113 -116.872116 254 14045ft 306kts
03-Aug-18 18:23 47.694265 -116.987582 256 14039ft 287kts
03-Aug-18 18:24 47.721899 -117.090598 306 12814ft 268kts
03-Aug-18 18:25 47.780373 -117.133461 26 10988ft 264kts
03-Aug-18 18:26 47.841850 -117.086344 345 9300ft 247kts
03-Aug-18 18:27 47.862504 -117.162969 240 7513ft 233kts
03-Aug-18 18:28 47.823075 -117.230774 225 6495ft 208kts
03-Aug-18 18:29 47.783753 -117.289207 225 5523ft 181kts
03-Aug-18 18:30 47.750701 -117.338906 225 5504ft 160kts
03-Aug-18 18:31 47.719955 -117.385034 225 4792ft 156kts
03-Aug-18 18:32 47.690852 -117.428459 226 4030ft 147kts
03-Aug-18 18:33 47.662469 -117.471602 225 3222ft 145kts
03-Aug-18 18:34 47.634150 -117.513894 225 2472ft 144kts
03-Aug-18 18:35 47.619062 -117.536554 225 2370ft 23kts
03-Aug-18 18:36 47.618142 -117.540348 270 2372ft 8kts
03-Aug-18 18:37 47.619658 -117.539710 46 2369ft 9kts
03-Aug-18 18:38 47.621392 -117.537108 44 2365ft 6kts
03-Aug-18 18:39 47.622562 -117.538001 307 2365ft 4kts
03-Aug-18 18:40 47.622670 -117.539131 304 2366ft 1kts
03-Aug-18 18:41 47.623309 -117.539256 1 2367ft 1kts
03-Aug-18 18:42 47.623364 -117.539254 0 2367ft 0kts
03-Aug-18 18:43 47.623364 -117.539254 0 2367ft 0kts

Navigation Log

Ident Type
Flight plan parsing failed, navigation log unavailable